Terminal Aerodrome Forecast
Issued by NWS Shreveport, LA

Home | Current Version | Previous Version | Text Only | Print | Product List | Glossary On
Versions: 1 2 3 4 5 6 7 8 9 10 11 12 13 14 15 16 17 18 19 20
000
FTUS44 KSHV 312300 RRA
TAFLFK
TAF
KLFK 312348Z 0100/0124 12007KT P6SM BKN025 OVC035
      TEMPO 0105/0107 4SM -RA BR OVC015
     FM010700 14010KT 3SM RA BR OVC008
     FM011200 19010KT 5SM -TSRA BR OVC015CB
     FM012300 29012G18KT 5SM -TSRA BR OVC025CB=

USA.gov is the U.S. government's official web portal to all federal, state and local government web resources and services.